CheckWX is a tool to help pilots better visualize weather data.  It is not intended as a substitute for an official pre-flight weather briefing.

12:40:24 UTC

HKKI TAF
Kisumu Airport
Kisumu, Kenya
TAF HKKI 261100Z 2612/2712 24015KT 9999 FEW029CB SCT100 TEMPO 2612/2618 VRB10KT -TSRA FEW023CB SCT024 BKN080 BECMG 2620/2623 VRB05KT NSW CAVOK TEMPO 2700/2706 9999 FEW020CB BECMG 2708/2711 22010KT 9999 FEW028CB SCT090

Mar-26@
12:00 UTC

Mar-26 @ 12:00 UTC

Mar-26@
20:00 UTC

Mar-26 @ 20:00 UTC

TAF HKKI 261100Z 2612/2712 24015KT 9999 FEW029CB SCT100
Wind
  • 240° at 15 KTS
Cloud Levels
  • Few at 2,900' AGL
  • Scattered at 10,000' AGL

Mar-26@
12:00 UTC

Mar-26 @ 12:00 UTC

Mar-26@
18:00 UTC

Mar-26 @ 18:00 UTC

TEMPO 2612/2618 VRB10KT -TSRA FEW023CB SCT024 BKN080

Temporary

Temporary Changes expected for less than half the time period

Wind
  • Variable at 10 KTS
Conditions
Light Thunderstorm, Light Rain
Cloud Levels
  • Few at 2,300' AGL
  • Scattered at 2,400' AGL
  • Broken at 8,000' AGL

Mar-26@
20:00 UTC

Mar-26 @ 20:00 UTC

Mar-27@
08:00 UTC

Mar-27 @ 08:00 UTC

BECMG 2620/2623 VRB05KT NSW CAVOK

Becoming

Becoming Conditions expected by Tue, Mar 26, 2019 @ 23:00 UTC

Wind
  • Variable at 5 KTS
Conditions
No significant weather
Cloud Levels
  • No significant clouds

Mar-27@
00:00 UTC

Mar-27 @ 00:00 UTC

Mar-27@
06:00 UTC

Mar-27 @ 06:00 UTC

TEMPO 2700/2706 9999 FEW020CB

Temporary

Temporary Changes expected for less than half the time period

Cloud Levels
  • Few at 2,000' AGL

Mar-27@
08:00 UTC

Mar-27 @ 08:00 UTC

Mar-27@
12:00 UTC

Mar-27 @ 12:00 UTC

BECMG 2708/2711 22010KT 9999 FEW028CB SCT090

Becoming

Becoming Conditions expected by Wed, Mar 27, 2019 @ 11:00 UTC

Wind
  • 220° at 10 KTS
Conditions
No significant weather
Cloud Levels
  • Few at 2,800' AGL
  • Scattered at 9,000' AGL